Time;durP1;ratioP1;P1;durP2;ratioP2;P2;SDS_P1;SDS_P2;PMS_P1;PMS_P2;Temp;Humidity;BMP_temperature;BMP_pressure;BME280_temperature;BME280_humidity;BME280_pressure;Samples;Min_cycle;Max_cycle;Signal;HPM_P1;HPM_P2
2022/06/23 00:01:48;;;;;;;10.10;6.78;;;20.60;99.90;;;;;;4943032;29;20027;-78
2022/06/23 00:04:20;;;;;;;11.50;7.05;;;20.60;99.90;;;;;;4931133;29;20032;-80
2022/06/23 00:06:57;;;;;;;13.18;7.13;;;20.60;99.90;;;;;;4940387;29;20111;-79
2022/06/23 00:09:38;;;;;;;12.27;7.30;;;20.60;99.90;;;;;;4933294;29;20032;-80
2022/06/23 00:12:16;;;;;;;10.27;6.80;;;20.60;99.90;;;;;;4923057;29;20068;-79
2022/06/23 00:14:42;;;;;;;13.10;6.90;;;20.60;99.90;;;;;;4923548;29;20555;-80
2022/06/23 00:17:21;;;;;;;10.75;7.03;;;20.60;99.90;;;;;;4929564;29;20051;-79
2022/06/23 00:19:47;;;;;;;10.48;7.20;;;20.60;99.90;;;;;;4941592;29;20031;-79
2022/06/23 00:22:16;;;;;;;11.27;6.82;;;20.50;99.90;;;;;;4961212;28;20031;-79
2022/06/23 00:24:44;;;;;;;12.35;7.47;;;20.50;99.90;;;;;;4959979;28;20083;-81
2022/06/23 00:27:18;;;;;;;13.07;7.68;;;20.50;99.90;;;;;;4960753;28;20032;-81
2022/06/23 00:29:47;;;;;;;12.07;7.85;;;20.50;99.90;;;;;;4940583;29;20040;-81
2022/06/23 00:32:14;;;;;;;13.25;6.78;;;20.50;99.90;;;;;;4941926;29;20032;-79
2022/06/23 00:34:52;;;;;;;12.38;7.57;;;20.40;99.90;;;;;;4941811;29;20044;-78
2022/06/23 00:37:19;;;;;;;12.63;8.10;;;20.50;99.90;;;;;;4942000;29;20040;-78
2022/06/23 00:40:12;;;;;;;12.55;6.70;;;20.50;99.90;;;;;;4959384;28;20031;-79
2022/06/23 00:42:58;;;;;;;12.57;8.65;;;20.60;99.90;;;;;;4941919;29;20048;-79
2022/06/23 00:45:43;;;;;;;11.00;6.43;;;20.50;99.90;;;;;;4941940;29;20032;-78
2022/06/23 00:48:27;;;;;;;12.75;8.48;;;20.40;99.90;;;;;;4941638;29;20020;-79
2022/06/23 00:51:18;;;;;;;9.38;6.40;;;20.40;99.90;;;;;;4947436;29;20024;-80
2022/06/23 00:53:50;;;;;;;9.68;7.68;;;20.40;99.90;;;;;;4960166;28;20039;-79
2022/06/23 00:56:41;;;;;;;8.52;7.40;;;20.50;99.90;;;;;;4959372;28;20039;-78
2022/06/23 00:59:12;;;;;;;11.40;7.07;;;20.40;99.90;;;;;;4952114;29;20039;-79
2022/06/23 01:01:41;;;;;;;12.75;7.55;;;20.40;99.90;;;;;;4950030;29;20024;-78
2022/06/23 01:04:36;;;;;;;12.05;7.85;;;20.40;99.90;;;;;;4941514;29;20020;-78
2022/06/23 01:07:22;;;;;;;10.35;7.70;;;20.40;99.90;;;;;;4940954;29;20043;-78
2022/06/23 01:10:04;;;;;;;12.82;8.20;;;20.20;99.90;;;;;;4933715;29;20087;-78
2022/06/23 01:12:52;;;;;;;9.07;7.25;;;20.10;99.90;;;;;;4956117;28;20068;-77
2022/06/23 01:15:43;;;;;;;13.80;7.40;;;20.10;99.90;;;;;;4959527;28;20031;-79
2022/06/23 01:18:21;;;;;;;14.10;7.38;;;20.10;99.90;;;;;;4948511;28;20028;-80
2022/06/23 01:21:00;;;;;;;9.23;7.30;;;20.10;99.90;;;;;;4955121;29;20055;-79
2022/06/23 01:23:40;;;;;;;12.80;7.78;;;20.10;99.90;;;;;;4934395;29;20043;-79
2022/06/23 01:26:26;;;;;;;9.52;6.57;;;20.20;99.90;;;;;;4935942;29;20114;-79
2022/06/23 01:29:10;;;;;;;9.60;7.00;;;20.30;99.90;;;;;;4959636;28;20080;-79
2022/06/23 01:31:52;;;;;;;19.92;8.38;;;20.40;99.90;;;;;;4959881;28;20096;-78
2022/06/23 01:34:26;;;;;;;15.88;7.70;;;20.40;99.90;;;;;;4960536;28;20048;-78
2022/06/23 01:37:24;;;;;;;9.30;6.88;;;20.40;99.90;;;;;;4949457;29;20043;-81
2022/06/23 01:40:16;;;;;;;11.63;7.32;;;20.50;99.90;;;;;;4913128;29;20075;-81
2022/06/23 01:43:26;;;;;;;12.10;7.03;;;20.50;99.90;;;;;;4920700;29;20040;-79
2022/06/23 01:46:37;;;;;;;14.43;7.78;;;20.60;99.90;;;;;;4898788;29;20071;-80
2022/06/23 01:49:08;;;;;;;12.05;8.02;;;20.50;99.90;;;;;;4906232;29;20051;-80
2022/06/23 01:51:50;;;;;;;12.25;7.60;;;20.40;99.90;;;;;;4923359;29;20028;-78
2022/06/23 01:54:25;;;;;;;11.55;8.27;;;20.30;99.90;;;;;;4937505;29;20079;-80
2022/06/23 01:57:02;;;;;;;11.25;7.40;;;20.20;99.90;;;;;;4943945;29;20027;-79
2022/06/23 01:59:36;;;;;;;11.35;7.72;;;20.10;99.90;;;;;;4925257;29;20048;-78
2022/06/23 02:02:11;;;;;;;11.02;8.10;;;20.10;99.90;;;;;;4929677;29;20036;-79
2022/06/23 02:05:03;;;;;;;9.77;7.75;;;20.20;99.90;;;;;;4930780;29;20047;-79
2022/06/23 02:08:06;;;;;;;11.05;6.95;;;20.10;99.90;;;;;;4931118;29;20024;-78
2022/06/23 02:10:39;;;;;;;10.48;7.80;;;20.10;99.90;;;;;;4924083;29;20040;-78
2022/06/23 02:13:26;;;;;;;11.27;7.32;;;20.10;99.90;;;;;;4925739;29;20044;-79
2022/06/23 02:16:13;;;;;;;11.57;7.53;;;20.10;99.90;;;;;;4929715;29;20091;-78
2022/06/23 02:18:59;;;;;;;11.43;7.95;;;20.10;99.90;;;;;;4945136;29;20058;-79
2022/06/23 02:21:48;;;;;;;13.68;8.25;;;19.90;99.90;;;;;;4944645;29;20044;-78
2022/06/23 02:24:23;;;;;;;11.82;7.32;;;19.90;99.90;;;;;;4945641;29;20035;-79
2022/06/23 02:26:58;;;;;;;13.40;8.02;;;19.70;99.90;;;;;;4945149;29;20031;-78
2022/06/23 02:29:45;;;;;;;16.83;8.63;;;19.70;99.90;;;;;;4946529;29;20032;-79
2022/06/23 02:32:18;;;;;;;12.05;7.70;;;19.60;99.90;;;;;;4951485;29;20034;-78
2022/06/23 02:34:49;;;;;;;14.45;8.30;;;19.60;99.90;;;;;;4947692;29;20091;-79
2022/06/23 02:37:43;;;;;;;11.20;6.85;;;19.50;99.90;;;;;;4948771;29;20028;-79
2022/06/23 02:40:35;;;;;;;12.80;7.20;;;19.50;99.90;;;;;;4916554;29;20043;-79
2022/06/23 02:43:26;;;;;;;8.77;6.47;;;19.50;99.90;;;;;;4929638;29;20048;-79
2022/06/23 02:46:26;;;;;;;7.85;6.97;;;19.50;99.90;;;;;;4934587;29;20040;-77
2022/06/23 02:49:14;;;;;;;7.88;6.40;;;19.50;99.90;;;;;;4934139;29;20032;-79
2022/06/23 02:51:51;;;;;;;19.55;8.07;;;19.60;99.90;;;;;;4934391;29;20036;-79
2022/06/23 02:54:23;;;;;;;14.20;7.75;;;19.50;99.90;;;;;;4935827;29;20032;-78
2022/06/23 02:57:15;;;;;;;11.52;7.70;;;19.50;99.90;;;;;;4934048;29;20020;-77
2022/06/23 02:59:57;;;;;;;12.88;8.40;;;19.50;99.90;;;;;;4934099;29;20038;-79
2022/06/23 03:02:26;;;;;;;14.55;7.55;;;19.40;99.90;;;;;;4936927;29;20036;-80
2022/06/23 03:05:11;;;;;;;12.77;8.25;;;19.40;99.90;;;;;;4938634;29;20038;-81
2022/06/23 03:07:42;;;;;;;;;;;19.40;99.90;;;;;;4937232;29;20115;-79
2022/06/23 03:10:20;;;;;;;12.18;7.47;;;19.40;99.90;;;;;;4936169;29;19943;-81
2022/06/23 03:13:06;;;;;;;12.43;7.78;;;19.40;99.90;;;;;;4929803;29;20025;-81
2022/06/23 03:15:40;;;;;;;10.57;6.55;;;19.40;99.90;;;;;;4937868;29;20060;-79
2022/06/23 03:18:20;;;;;;;9.25;5.90;;;19.40;99.90;;;;;;4942266;29;20036;-81
2022/06/23 03:20:58;;;;;;;8.48;6.28;;;19.40;99.90;;;;;;4928967;29;20059;-80
2022/06/23 03:23:52;;;;;;;11.07;6.35;;;19.50;99.90;;;;;;4930746;29;20507;-79
2022/06/23 03:26:41;;;;;;;9.27;6.38;;;19.60;99.90;;;;;;4946602;29;20043;-80
2022/06/23 03:29:25;;;;;;;8.98;5.82;;;19.60;99.90;;;;;;4949625;29;20042;-80
2022/06/23 03:32:26;;;;;;;9.50;5.45;;;19.70;99.90;;;;;;4950216;29;20042;-80
2022/06/23 03:35:13;;;;;;;8.65;5.63;;;19.70;99.90;;;;;;4888950;29;20040;-79
2022/06/23 03:38:12;;;;;;;10.40;5.13;;;19.80;99.90;;;;;;4942986;29;20099;-79
2022/06/23 03:43:34;;;;;;;9.43;5.40;;;20.00;99.90;;;;;;4956014;28;20055;-80
2022/06/23 03:46:21;;;;;;;6.05;5.22;;;20.10;99.90;;;;;;4946221;28;20015;-79
2022/06/23 03:49:00;;;;;;;7.85;4.70;;;20.10;99.90;;;;;;4956808;29;20059;-80
2022/06/23 03:51:35;;;;;;;7.82;5.35;;;20.20;99.90;;;;;;4947076;29;21340;-79
2022/06/23 03:54:16;;;;;;;16.58;5.70;;;20.30;99.90;;;;;;4945593;29;20036;-79
2022/06/23 03:56:47;;;;;;;11.50;5.55;;;20.40;99.90;;;;;;4917102;29;20060;-78
2022/06/23 03:59:40;;;;;;;12.00;5.70;;;20.40;99.90;;;;;;4938152;29;20486;-79
2022/06/23 04:02:23;;;;;;;12.23;5.28;;;20.50;99.90;;;;;;4919902;29;20048;-81
2022/06/23 04:05:04;;;;;;;8.05;5.28;;;20.60;99.90;;;;;;4946533;29;20031;-81
2022/06/23 04:07:30;;;;;;;11.93;5.15;;;20.70;99.90;;;;;;4947293;29;20036;-81
2022/06/23 04:10:12;;;;;;;8.13;5.00;;;20.70;99.90;;;;;;4948778;29;20039;-81
2022/06/23 04:12:44;;;;;;;9.57;6.03;;;20.80;99.90;;;;;;4948736;29;20055;-81
2022/06/23 04:15:17;;;;;;;10.70;5.93;;;20.90;99.90;;;;;;4933547;29;20036;-82
2022/06/23 04:17:55;;;;;;;11.27;6.00;;;21.00;99.90;;;;;;4943065;29;20057;-81
2022/06/23 04:20:40;;;;;;;11.95;5.45;;;21.00;99.90;;;;;;4943057;29;20042;-82
2022/06/23 04:23:20;;;;;;;8.40;5.57;;;21.00;99.90;;;;;;4942630;29;20043;-82
2022/06/23 04:25:46;;;;;;;10.88;5.43;;;21.10;99.90;;;;;;4941219;29;20114;-81
2022/06/23 04:28:29;;;;;;;8.20;5.63;;;21.20;99.90;;;;;;4941754;29;20063;-82
2022/06/23 04:30:58;;;;;;;14.48;6.03;;;21.40;99.90;;;;;;4944302;29;20055;-82
2022/06/23 04:33:26;;;;;;;13.43;5.80;;;21.40;99.90;;;;;;4942473;29;20059;-82
2022/06/23 04:35:54;;;;;;;11.82;5.53;;;21.50;99.90;;;;;;4940535;29;20039;-83
2022/06/23 04:38:36;;;;;;;8.95;6.05;;;21.50;99.90;;;;;;4942658;29;20031;-84
2022/06/23 04:41:16;;;;;;;10.82;5.80;;;21.50;99.90;;;;;;4947666;29;20031;-82
2022/06/23 04:44:17;;;;;;;9.10;5.18;;;21.50;99.90;;;;;;4946996;29;20031;-81
2022/06/23 04:46:46;;;;;;;12.60;6.20;;;21.60;99.90;;;;;;4944145;29;20043;-82
2022/06/23 04:49:50;;;;;;;12.60;5.40;;;21.60;99.90;;;;;;4944931;29;20171;-81
2022/06/23 04:52:26;;;;;;;6.18;5.38;;;21.70;99.90;;;;;;4923104;29;20063;-81
2022/06/23 04:55:16;;;;;;;9.70;5.78;;;22.00;99.90;;;;;;4959814;28;20047;-81
2022/06/23 04:57:53;;;;;;;9.93;6.07;;;22.20;99.90;;;;;;4953875;29;20052;-82
2022/06/23 05:00:24;;;;;;;6.90;5.22;;;22.40;99.90;;;;;;4938432;28;20032;-80
2022/06/23 05:02:56;;;;;;;11.52;6.05;;;22.40;99.90;;;;;;4959741;28;20031;-81
2022/06/23 05:05:32;;;;;;;10.00;5.75;;;22.50;99.90;;;;;;4959403;28;20051;-82
2022/06/23 05:07:58;;;;;;;13.55;6.00;;;22.50;99.90;;;;;;4944886;29;20039;-83
2022/06/23 05:10:30;;;;;;;7.63;5.70;;;22.50;99.90;;;;;;4941530;29;20357;-82
2022/06/23 05:13:04;;;;;;;11.38;6.05;;;22.60;99.90;;;;;;4940988;29;20032;-83
2022/06/23 05:15:41;;;;;;;7.20;5.35;;;22.50;99.90;;;;;;4939860;29;20043;-81
2022/06/23 05:18:17;;;;;;;9.77;6.13;;;22.50;99.90;;;;;;4940444;29;20038;-83
2022/06/23 05:20:43;;;;;;;11.18;6.68;;;22.40;99.90;;;;;;4939799;29;20091;-81
2022/06/23 05:23:21;;;;;;;11.80;6.93;;;22.20;99.90;;;;;;4943725;29;20004;-80
2022/06/23 05:25:50;;;;;;;8.90;6.82;;;22.20;99.90;;;;;;4945300;29;20036;-81
2022/06/23 05:28:26;;;;;;;10.93;6.72;;;22.10;99.90;;;;;;4939258;29;20091;-80
2022/06/23 05:30:55;;;;;;;12.05;6.18;;;22.10;99.90;;;;;;4950187;29;20041;-82
2022/06/23 05:33:26;;;;;;;11.68;6.88;;;22.20;99.90;;;;;;4929301;29;20036;-82
2022/06/23 05:35:57;;;;;;;9.13;6.32;;;22.30;99.90;;;;;;4930118;29;20091;-83
2022/06/23 05:38:34;;;;;;;11.55;6.47;;;22.30;99.90;;;;;;4929427;29;20043;-81
2022/06/23 05:41:14;;;;;;;14.63;7.40;;;22.50;99.90;;;;;;4934006;29;20084;-84
2022/06/23 05:43:42;;;;;;;9.95;6.53;;;22.60;99.90;;;;;;4941457;29;20055;-82
2022/06/23 05:46:18;;;;;;;11.55;6.50;;;22.70;99.90;;;;;;4947786;29;20083;-84
2022/06/23 05:48:47;;;;;;;9.27;6.55;;;22.80;99.90;;;;;;4928410;29;20035;-83
2022/06/23 05:51:16;;;;;;;11.43;6.72;;;22.90;99.90;;;;;;4928259;29;20024;-82
2022/06/23 05:54:00;;;;;;;11.20;7.38;;;23.00;99.90;;;;;;4931577;29;20036;-79
2022/06/23 05:56:35;;;;;;;17.40;6.13;;;23.10;99.90;;;;;;4935262;29;20162;-83
2022/06/23 05:59:12;;;;;;;10.98;6.57;;;23.20;99.90;;;;;;4936018;29;20290;-81
2022/06/23 06:01:41;;;;;;;10.10;6.05;;;23.40;99.90;;;;;;4928803;29;20028;-82
2022/06/23 06:04:18;;;;;;;11.05;5.63;;;23.50;99.90;;;;;;4929023;29;20038;-82
2022/06/23 06:06:45;;;;;;;10.80;6.15;;;23.50;99.90;;;;;;4919825;29;20095;-81
2022/06/23 06:12:02;;;;;;;12.60;5.85;;;23.80;99.90;;;;;;4922325;29;20059;-82
2022/06/23 06:14:32;;;;;;;9.13;5.88;;;23.90;99.90;;;;;;4921801;29;20039;-83
2022/06/23 06:16:59;;;;;;;12.18;6.22;;;23.80;99.90;;;;;;4923614;29;20036;-82
2022/06/23 06:19:28;;;;;;;11.77;6.35;;;23.70;99.90;;;;;;4923539;29;20385;-83
2022/06/23 06:21:57;;;;;;;13.85;6.38;;;23.70;99.90;;;;;;4920972;29;20126;-82
2022/06/23 06:24:41;;;;;;;10.73;5.55;;;23.70;99.90;;;;;;4919811;29;20047;-83
2022/06/23 06:27:11;;;;;;;10.15;6.50;;;23.90;99.90;;;;;;4929909;29;20092;-79
2022/06/23 06:29:40;;;;;;;7.53;5.18;;;24.00;99.90;;;;;;4923857;29;20409;-82
2022/06/23 06:32:21;;;;;;;6.90;4.75;;;24.20;99.90;;;;;;4924103;29;20051;-81
2022/06/23 06:35:04;;;;;;;9.82;5.82;;;24.40;99.90;;;;;;4924508;29;20038;-83
2022/06/23 06:37:33;;;;;;;11.73;5.63;;;24.60;99.90;;;;;;4924730;29;20028;-84
2022/06/23 06:40:03;;;;;;;9.48;5.25;;;24.60;99.90;;;;;;4924366;29;20070;-84
2022/06/23 06:42:42;;;;;;;8.60;5.35;;;24.40;99.90;;;;;;4923740;29;20452;-82
2022/06/23 06:45:13;;;;;;;8.23;4.43;;;24.50;99.90;;;;;;4924833;29;20039;-84
2022/06/23 06:47:40;;;;;;;7.70;4.93;;;24.50;99.90;;;;;;4923898;29;20040;-83
2022/06/23 06:50:25;;;;;;;7.43;5.15;;;24.50;99.90;;;;;;4923898;29;20096;-82
2022/06/23 06:52:52;;;;;;;10.32;5.63;;;24.60;99.90;;;;;;4924387;29;20404;-82
2022/06/23 06:55:25;;;;;;;8.20;4.97;;;24.60;99.90;;;;;;4923740;29;20113;-82
2022/06/23 06:58:11;;;;;;;8.50;4.97;;;24.50;99.90;;;;;;4923602;29;20020;-81
2022/06/23 07:00:55;;;;;;;9.35;5.38;;;24.40;99.90;;;;;;4923568;29;20036;-83
2022/06/23 07:03:24;;;;;;;8.43;5.53;;;24.50;99.90;;;;;;4924571;29;20032;-81
2022/06/23 07:05:59;;;;;;;10.73;4.90;;;24.60;99.90;;;;;;4923504;29;20039;-81
2022/06/23 07:08:50;;;;;;;7.68;4.85;;;24.60;99.90;;;;;;4925414;29;20064;-83
2022/06/23 07:11:33;;;;;;;8.23;5.15;;;24.70;99.90;;;;;;4923773;29;20115;-83
2022/06/23 07:14:25;;;;;;;7.65;4.75;;;24.70;99.90;;;;;;4923178;29;20047;-84
2022/06/23 07:17:19;;;;;;;8.70;4.20;;;24.80;99.90;;;;;;4923623;29;20020;-83
2022/06/23 07:20:01;;;;;;;7.22;4.80;;;24.80;99.90;;;;;;4915888;29;20040;-83
2022/06/23 07:22:36;;;;;;;8.88;5.22;;;24.80;99.90;;;;;;4928767;29;20249;-81
2022/06/23 07:25:04;;;;;;;9.50;4.72;;;24.80;99.90;;;;;;4927187;29;20552;-82
2022/06/23 07:27:55;;;;;;;10.45;4.60;;;24.90;99.90;;;;;;4928740;29;20040;-82
2022/06/23 07:30:28;;;;;;;8.32;4.50;;;24.90;99.90;;;;;;4927850;29;20060;-82
2022/06/23 07:33:15;;;;;;;8.75;5.68;;;24.90;99.90;;;;;;4942080;29;20024;-81
2022/06/23 07:36:33;;;;;;;9.20;5.07;;;24.90;99.90;;;;;;4945019;29;20088;-84
2022/06/23 07:39:03;;;;;;;6.10;4.07;;;25.10;99.90;;;;;;4896623;29;20056;-86
2022/06/23 07:41:57;;;;;;;10.02;4.55;;;25.10;99.90;;;;;;4926406;29;20036;-88
2022/06/23 07:44:30;;;;;;;6.93;4.07;;;25.30;99.90;;;;;;4928035;29;20428;-86
2022/06/23 07:46:56;;;;;;;8.68;4.28;;;25.60;99.90;;;;;;4935784;29;20024;-84
2022/06/23 07:49:25;;;;;;;7.63;4.45;;;25.60;99.90;;;;;;4928133;29;20028;-85
2022/06/23 07:51:53;;;;;;;5.28;3.83;;;25.50;99.90;;;;;;4928037;29;20032;-86
2022/06/23 07:54:20;;;;;;;7.97;4.03;;;25.60;99.90;;;;;;4926507;29;20070;-85
2022/06/23 07:56:47;;;;;;;7.20;4.60;;;25.60;99.90;;;;;;4946863;29;20028;-84
2022/06/23 07:59:16;;;;;;;7.63;4.05;;;25.50;99.90;;;;;;4943524;29;20032;-84
2022/06/23 08:01:47;;;;;;;6.97;3.75;;;25.40;99.90;;;;;;4947823;28;20032;-82
2022/06/23 08:04:56;;;;;;;8.90;4.38;;;25.60;99.90;;;;;;4957854;28;20020;-84
2022/06/23 08:07:24;;;;;;;7.55;3.78;;;25.80;99.90;;;;;;4926724;29;20046;-85
2022/06/23 08:09:57;;;;;;;6.95;3.65;;;25.80;99.90;;;;;;4928056;29;20031;-85
2022/06/23 08:18:28;;;;;;;7.20;4.20;;;25.90;99.90;;;;;;4929584;29;20083;-84
2022/06/23 08:21:00;;;;;;;8.85;3.95;;;26.00;99.90;;;;;;4938977;29;20028;-83
2022/06/23 08:23:30;;;;;;;7.85;4.18;;;26.30;99.70;;;;;;4941758;29;20063;-85
2022/06/23 08:25:56;;;;;;;9.63;4.50;;;26.60;99.50;;;;;;4933758;29;20051;-83
2022/06/23 08:28:23;;;;;;;7.47;4.07;;;26.80;99.10;;;;;;4935708;29;20032;-83
2022/06/23 08:30:48;;;;;;;5.57;3.90;;;26.80;98.30;;;;;;4946877;29;20107;-83
2022/06/23 08:33:15;;;;;;;9.52;4.18;;;26.70;97.80;;;;;;4938596;29;20056;-84
2022/06/23 08:35:48;;;;;;;10.70;3.60;;;26.70;97.50;;;;;;4948132;29;20046;-84
2022/06/23 08:38:25;;;;;;;6.72;3.38;;;26.80;96.80;;;;;;4935227;29;20056;-85
2022/06/23 08:40:51;;;;;;;6.80;3.60;;;26.90;96.60;;;;;;4936996;29;20083;-83
2022/06/23 08:43:35;;;;;;;6.10;3.80;;;27.00;97.20;;;;;;4932273;29;20020;-84
2022/06/23 08:46:24;;;;;;;5.13;3.58;;;27.30;96.80;;;;;;4926247;29;20119;-83
2022/06/23 08:49:02;;;;;;;11.85;4.18;;;27.50;96.20;;;;;;4925184;29;20112;-86
2022/06/23 08:52:03;;;;;;;7.60;4.10;;;27.40;97.40;;;;;;4926711;29;20034;-86
2022/06/23 08:54:59;;;;;;;10.77;4.22;;;27.40;97.50;;;;;;4927550;29;20072;-86
2022/06/23 08:57:28;;;;;;;5.70;3.78;;;27.50;97.00;;;;;;4938671;29;20579;-87
2022/06/23 09:00:06;;;;;;;7.22;3.58;;;27.40;97.00;;;;;;4934327;29;20165;-84
2022/06/23 09:02:54;;;;;;;7.57;3.05;;;27.30;95.90;;;;;;4936338;29;20047;-84
2022/06/23 09:05:39;;;;;;;10.82;3.08;;;27.60;95.10;;;;;;4936423;29;20043;-84
2022/06/23 09:08:16;;;;;;;3.60;2.97;;;27.40;94.00;;;;;;4943848;29;20040;-84
2022/06/23 09:11:09;;;;;;;4.55;2.80;;;27.60;93.70;;;;;;4945187;29;20032;-84
2022/06/23 09:13:44;;;;;;;6.90;3.03;;;27.50;93.30;;;;;;4945796;29;20047;-84
2022/06/23 09:16:35;;;;;;;5.65;3.33;;;27.40;93.40;;;;;;4941752;29;20020;-82
2022/06/23 09:19:35;;;;;;;5.88;3.20;;;27.30;93.90;;;;;;4934357;29;20024;-83
2022/06/23 09:22:09;;;;;;;4.00;3.00;;;27.40;93.70;;;;;;4932359;29;20035;-84
2022/06/23 09:24:47;;;;;;;3.78;3.20;;;27.40;93.80;;;;;;4930503;29;20060;-82
2022/06/23 09:27:34;;;;;;;6.35;3.20;;;27.60;93.20;;;;;;4932396;29;20553;-85
2022/06/23 09:30:03;;;;;;;8.45;3.10;;;27.60;93.20;;;;;;4933897;29;20512;-83
2022/06/23 09:32:32;;;;;;;8.32;3.45;;;27.50;93.00;;;;;;4935328;29;20035;-85
2022/06/23 09:35:19;;;;;;;6.88;3.42;;;27.60;93.00;;;;;;4932186;29;20492;-85
2022/06/23 09:38:04;;;;;;;4.45;3.03;;;27.90;92.30;;;;;;4934167;29;20545;-84
2022/06/23 09:40:54;;;;;;;8.60;3.50;;;28.00;92.20;;;;;;4940519;29;20028;-84
2022/06/23 09:43:51;;;;;;;2.97;2.60;;;28.20;91.90;;;;;;4935228;29;20032;-84
2022/06/23 09:46:49;;;;;;;6.38;2.40;;;28.10;91.20;;;;;;4933357;29;20063;-84
2022/06/23 09:49:44;;;;;;;9.63;2.97;;;28.30;91.20;;;;;;4933533;29;20038;-83
2022/06/23 09:52:46;;;;;;;7.20;3.33;;;28.70;91.00;;;;;;4905138;29;20064;-83
2022/06/23 09:55:18;;;;;;;4.38;3.22;;;28.80;91.10;;;;;;4934154;29;20028;-85
2022/06/23 09:58:06;;;;;;;10.40;2.92;;;29.20;90.40;;;;;;4933813;29;20396;-85
2022/06/23 10:00:46;;;;;;;9.00;3.00;;;29.40;90.00;;;;;;4942849;29;20071;-85
2022/06/23 10:03:22;;;;;;;4.00;2.53;;;29.50;88.80;;;;;;4957497;28;20036;-84
2022/06/23 10:06:19;;;;;;;4.10;2.67;;;29.90;88.30;;;;;;4957424;28;20056;-85
2022/06/23 10:09:14;;;;;;;6.82;2.40;;;31.30;85.20;;;;;;4942901;29;20044;-85
2022/06/23 10:12:08;;;;;;;5.82;2.55;;;32.70;83.60;;;;;;4924006;29;20046;-87
2022/06/23 10:15:08;;;;;;;2.67;2.20;;;34.10;78.50;;;;;;4939728;29;20035;-84
2022/06/23 10:17:51;;;;;;;7.63;2.50;;;35.30;74.20;;;;;;4941627;29;20031;-89
2022/06/23 10:20:51;;;;;;;4.43;2.78;;;36.40;70.00;;;;;;4947696;29;20107;-86
2022/06/23 10:23:29;;;;;;;6.40;2.80;;;36.20;67.30;;;;;;4935301;29;20171;-91
2022/06/23 10:26:12;;;;;;;2.03;1.83;;;35.80;67.20;;;;;;4941972;29;20036;-92
2022/06/23 10:29:11;;;;;;;9.43;3.85;;;36.70;65.10;;;;;;4941834;29;20035;-85
2022/06/23 10:32:00;;;;;;;6.18;2.72;;;37.20;64.10;;;;;;4943025;29;20051;-84
2022/06/23 10:34:51;;;;;;;6.32;2.60;;;38.50;61.90;;;;;;4904747;29;20052;-84
2022/06/23 10:37:47;;;;;;;5.50;1.67;;;39.50;58.60;;;;;;4939143;29;20028;-84
2022/06/23 10:40:31;;;;;;;6.28;2.13;;;40.40;57.40;;;;;;4941516;29;20044;-83
2022/06/23 10:43:29;;;;;;;4.57;2.10;;;41.20;54.10;;;;;;4947086;29;20024;-83
2022/06/23 10:46:11;;;;;;;4.22;2.08;;;42.00;52.60;;;;;;4960994;29;20020;-84
2022/06/23 10:48:43;;;;;;;3.88;2.10;;;42.70;51.70;;;;;;4956766;29;20032;-85
2022/06/23 10:51:15;;;;;;;5.32;1.90;;;43.10;50.50;;;;;;4948989;29;20012;-86
2022/06/23 10:53:50;;;;;;;2.88;1.90;;;42.90;49.80;;;;;;4948981;29;20028;-85
2022/06/23 10:56:53;;;;;;;9.02;2.00;;;43.30;49.40;;;;;;4942892;29;20036;-85
2022/06/23 10:59:44;;;;;;;2.80;1.70;;;43.60;49.20;;;;;;4932896;29;20055;-86
2022/06/23 11:02:19;;;;;;;4.50;1.88;;;44.80;47.60;;;;;;4939843;29;20034;-87
2022/06/23 11:05:03;;;;;;;5.18;1.80;;;45.40;46.50;;;;;;4950353;28;20051;-84
2022/06/23 11:07:44;;;;;;;3.40;1.80;;;45.90;45.70;;;;;;4944864;29;20044;-84
2022/06/23 11:10:15;;;;;;;3.70;1.70;;;45.30;45.20;;;;;;4949594;28;20040;-84
2022/06/23 11:13:01;;;;;;;2.53;1.63;;;45.30;45.50;;;;;;4952256;28;20031;-84
2022/06/23 11:16:07;;;;;;;6.85;2.13;;;45.40;44.80;;;;;;4955723;28;20097;-84
2022/06/23 11:18:55;;;;;;;7.07;1.85;;;43.20;45.30;;;;;;4950222;29;20056;-85
2022/06/23 11:21:44;;;;;;;5.20;1.70;;;41.70;46.30;;;;;;4943500;29;20036;-85
2022/06/23 11:24:16;;;;;;;5.47;2.30;;;42.30;46.10;;;;;;4957742;29;20040;-84
2022/06/23 11:26:53;;;;;;;6.85;2.00;;;42.40;45.60;;;;;;4949133;29;20075;-85
2022/06/23 11:30:01;;;;;;;7.35;2.10;;;42.70;45.90;;;;;;4926994;29;20027;-84
2022/06/23 11:32:38;;;;;;;3.17;1.63;;;42.60;45.30;;;;;;4936150;29;20039;-86
2022/06/23 11:35:04;;;;;;;2.95;1.80;;;43.10;45.40;;;;;;4937682;29;20118;-85
2022/06/23 11:37:55;;;;;;;4.75;1.80;;;44.00;45.20;;;;;;4939773;29;20060;-85
2022/06/23 11:40:36;;;;;;;2.13;1.75;;;43.80;45.00;;;;;;4940158;29;20032;-89
2022/06/23 11:43:19;;;;;;;2.58;1.70;;;43.00;45.10;;;;;;4933839;29;20028;-85
2022/06/23 11:46:06;;;;;;;3.80;1.75;;;44.30;44.30;;;;;;4932232;29;20064;-85
2022/06/23 11:48:52;;;;;;;2.58;1.60;;;45.00;43.80;;;;;;4931365;29;20036;-85
2022/06/23 11:51:37;;;;;;;6.07;1.67;;;46.20;42.90;;;;;;4930678;29;20060;-87
2022/06/23 11:54:16;;;;;;;2.83;1.75;;;46.90;42.80;;;;;;4930728;29;20032;-84
2022/06/23 11:57:27;;;;;;;5.18;1.90;;;46.60;42.40;;;;;;4935487;29;20051;-84
2022/06/23 12:00:04;;;;;;;6.20;1.63;;;46.00;42.50;;;;;;4923028;23;20067;-85
2022/06/23 12:03:28;;;;;;;6.35;2.10;;;45.70;42.40;;;;;;4960366;28;20027;-86
2022/06/23 12:06:09;;;;;;;3.65;1.80;;;44.50;42.50;;;;;;4917235;29;20025;-86
2022/06/23 12:08:35;;;;;;;4.95;2.15;;;41.90;44.10;;;;;;4950517;29;20065;-86
2022/06/23 12:11:01;;;;;;;8.70;2.10;;;42.30;43.70;;;;;;4927839;29;20031;-85
2022/06/23 12:13:29;;;;;;;3.25;1.90;;;41.20;44.10;;;;;;4923945;29;20067;-86
2022/06/23 12:15:55;;;;;;;3.90;1.70;;;41.40;44.70;;;;;;4928818;29;20024;-86
2022/06/23 12:18:49;;;;;;;5.05;1.52;;;41.40;44.10;;;;;;4926416;29;20136;-86
2022/06/23 12:21:21;;;;;;;4.45;2.03;;;42.30;44.10;;;;;;4925631;29;20480;-87
2022/06/23 12:23:55;;;;;;;3.03;1.90;;;44.10;43.70;;;;;;4928837;29;20032;-84
2022/06/23 12:26:43;;;;;;;3.00;1.80;;;44.00;43.30;;;;;;4929795;29;20727;-86
2022/06/23 12:29:21;;;;;;;4.22;1.70;;;43.30;43.20;;;;;;4929819;29;20093;-87
2022/06/23 12:31:49;;;;;;;5.80;2.20;;;43.90;43.90;;;;;;4943570;29;20045;-86
2022/06/23 12:34:36;;;;;;;3.53;1.73;;;44.40;43.00;;;;;;4928579;29;20051;-87
2022/06/23 12:37:21;;;;;;;3.20;1.70;;;44.80;42.50;;;;;;4931451;29;20072;-86
2022/06/23 12:40:08;;;;;;;3.70;1.83;;;44.60;42.00;;;;;;4930827;29;20021;-85
2022/06/23 12:42:38;;;;;;;3.13;1.90;;;41.90;43.50;;;;;;4929288;29;20047;-85
2022/06/23 12:45:23;;;;;;;4.35;1.88;;;39.90;45.40;;;;;;4930706;29;20076;-84
2022/06/23 12:48:26;;;;;;;3.20;1.80;;;40.70;44.90;;;;;;4928142;29;20059;-86
2022/06/23 12:51:14;;;;;;;2.28;1.67;;;42.80;43.40;;;;;;4923533;29;20044;-86
2022/06/23 12:53:51;;;;;;;10.23;1.60;;;42.10;43.20;;;;;;4924662;29;20106;-87
2022/06/23 12:56:41;;;;;;;5.18;1.80;;;41.40;44.40;;;;;;4942614;29;20051;-86
2022/06/23 12:59:19;;;;;;;5.38;1.80;;;41.40;43.90;;;;;;4931738;29;20028;-87
2022/06/23 13:01:47;;;;;;;9.30;2.55;;;39.70;45.00;;;;;;4933491;29;20043;-88
2022/06/23 13:04:34;;;;;;;4.72;1.88;;;38.50;45.80;;;;;;4930853;29;20540;-87
2022/06/23 13:07:12;;;;;;;2.75;1.75;;;37.30;46.80;;;;;;4930362;29;20020;-87
2022/06/23 13:10:01;;;;;;;3.47;1.77;;;37.50;46.70;;;;;;4946042;29;20080;-85
2022/06/23 13:12:38;;;;;;;3.05;1.98;;;39.10;45.60;;;;;;4930059;29;20055;-87
2022/06/23 13:15:14;;;;;;;4.07;1.67;;;40.40;45.30;;;;;;4932539;29;20032;-86
2022/06/23 13:17:50;;;;;;;3.45;1.48;;;42.20;44.20;;;;;;4940824;29;20035;-85
2022/06/23 13:20:39;;;;;;;2.97;1.38;;;43.10;42.80;;;;;;4939456;29;20028;-85
2022/06/23 13:23:20;;;;;;;3.78;1.60;;;42.30;42.50;;;;;;4939896;29;20038;-86
2022/06/23 13:25:56;;;;;;;6.22;1.67;;;40.70;43.90;;;;;;4934385;29;20051;-84
2022/06/23 13:28:31;;;;;;;3.25;1.40;;;40.60;43.60;;;;;;4938781;29;20108;-86
2022/06/23 13:31:12;;;;;;;2.35;1.65;;;41.20;43.50;;;;;;4935666;29;20047;-87
2022/06/23 13:34:06;;;;;;;1.88;1.35;;;42.00;42.80;;;;;;4934447;29;20083;-87
2022/06/23 13:37:23;;;;;;;4.88;1.83;;;42.00;42.70;;;;;;4937636;29;20047;-88
2022/06/23 13:40:25;;;;;;;3.60;1.50;;;42.90;42.50;;;;;;4861593;29;20038;-86
2022/06/23 13:43:08;;;;;;;2.05;1.58;;;42.50;41.80;;;;;;4846491;29;20026;-86
2022/06/23 13:45:47;;;;;;;3.75;1.55;;;42.90;41.80;;;;;;4913125;29;20028;-88
2022/06/23 13:48:28;;;;;;;8.20;2.03;;;43.50;41.10;;;;;;4938245;29;20039;-86
2022/06/23 13:51:13;;;;;;;3.67;1.67;;;44.30;40.90;;;;;;4936300;29;20074;-87
2022/06/23 13:54:03;;;;;;;2.72;1.52;;;44.40;40.80;;;;;;4937570;29;20052;-87
2022/06/23 13:56:36;;;;;;;1.52;1.20;;;43.90;41.00;;;;;;4953083;28;20191;-87
2022/06/23 13:59:08;;;;;;;3.53;1.40;;;43.70;41.00;;;;;;4938114;29;20024;-84
2022/06/23 14:01:46;;;;;;;4.07;2.30;;;43.30;40.80;;;;;;4955019;28;20044;-84
2022/06/23 14:04:18;;;;;;;2.90;1.38;;;42.10;41.40;;;;;;4948176;28;20032;-84